sensor_id;sensor_type;location;lat;lon;timestamp;P1;durP1;ratioP1;P2;durP2;ratioP2
583;SDS011;27024;54.068;12.116;2023-02-23T00:01:52;20.70;;;5.07;;
583;SDS011;27024;54.068;12.116;2023-02-23T00:04:19;22.17;;;5.82;;
583;SDS011;27024;54.068;12.116;2023-02-23T00:06:46;25.10;;;5.30;;
583;SDS011;27024;54.068;12.116;2023-02-23T00:09:13;20.02;;;6.38;;
583;SDS011;27024;54.068;12.116;2023-02-23T00:11:54;20.58;;;5.85;;
583;SDS011;27024;54.068;12.116;2023-02-23T00:14:26;19.25;;;6.57;;
583;SDS011;27024;54.068;12.116;2023-02-23T00:16:54;18.35;;;5.05;;
583;SDS011;27024;54.068;12.116;2023-02-23T00:19:22;19.08;;;5.00;;
583;SDS011;27024;54.068;12.116;2023-02-23T00:21:50;20.10;;;5.90;;
583;SDS011;27024;54.068;12.116;2023-02-23T00:24:18;16.02;;;5.03;;
583;SDS011;27024;54.068;12.116;2023-02-23T00:26:46;23.67;;;6.93;;
583;SDS011;27024;54.068;12.116;2023-02-23T00:29:15;20.25;;;6.13;;
583;SDS011;27024;54.068;12.116;2023-02-23T00:31:51;19.13;;;6.13;;
583;SDS011;27024;54.068;12.116;2023-02-23T00:34:19;20.33;;;6.18;;
583;SDS011;27024;54.068;12.116;2023-02-23T00:36:50;24.08;;;5.68;;
583;SDS011;27024;54.068;12.116;2023-02-23T00:39:20;18.25;;;5.80;;
583;SDS011;27024;54.068;12.116;2023-02-23T00:41:52;20.98;;;6.60;;
583;SDS011;27024;54.068;12.116;2023-02-23T00:44:20;18.38;;;6.18;;
583;SDS011;27024;54.068;12.116;2023-02-23T00:46:49;26.20;;;6.97;;
583;SDS011;27024;54.068;12.116;2023-02-23T00:49:17;21.23;;;6.55;;
583;SDS011;27024;54.068;12.116;2023-02-23T00:51:46;23.98;;;6.68;;
583;SDS011;27024;54.068;12.116;2023-02-23T00:54:14;24.60;;;7.05;;
583;SDS011;27024;54.068;12.116;2023-02-23T00:56:41;16.83;;;6.57;;
583;SDS011;27024;54.068;12.116;2023-02-23T00:59:08;27.92;;;7.28;;
583;SDS011;27024;54.068;12.116;2023-02-23T01:01:36;20.20;;;6.25;;
583;SDS011;27024;54.068;12.116;2023-02-23T01:04:04;19.65;;;6.68;;
583;SDS011;27024;54.068;12.116;2023-02-23T01:06:31;22.05;;;6.38;;
583;SDS011;27024;54.068;12.116;2023-02-23T01:08:59;25.13;;;7.45;;
583;SDS011;27024;54.068;12.116;2023-02-23T01:11:30;23.15;;;7.15;;
583;SDS011;27024;54.068;12.116;2023-02-23T01:13:57;19.33;;;6.63;;
583;SDS011;27024;54.068;12.116;2023-02-23T01:16:26;21.05;;;7.15;;
583;SDS011;27024;54.068;12.116;2023-02-23T01:19:00;25.58;;;8.30;;
583;SDS011;27024;54.068;12.116;2023-02-23T01:21:30;18.70;;;7.18;;
583;SDS011;27024;54.068;12.116;2023-02-23T01:23:59;22.52;;;7.28;;
583;SDS011;27024;54.068;12.116;2023-02-23T01:26:29;23.00;;;8.15;;
583;SDS011;27024;54.068;12.116;2023-02-23T01:29:03;19.88;;;7.15;;
583;SDS011;27024;54.068;12.116;2023-02-23T01:34:02;21.25;;;6.85;;
583;SDS011;27024;54.068;12.116;2023-02-23T01:36:32;29.08;;;7.65;;
583;SDS011;27024;54.068;12.116;2023-02-23T01:39:01;24.02;;;7.72;;
583;SDS011;27024;54.068;12.116;2023-02-23T01:41:31;25.27;;;8.23;;
583;SDS011;27024;54.068;12.116;2023-02-23T01:46:33;23.70;;;8.43;;
583;SDS011;27024;54.068;12.116;2023-02-23T01:49:02;23.52;;;8.07;;
583;SDS011;27024;54.068;12.116;2023-02-23T01:51:30;29.90;;;8.57;;
583;SDS011;27024;54.068;12.116;2023-02-23T01:53:59;22.67;;;8.63;;
583;SDS011;27024;54.068;12.116;2023-02-23T01:56:31;21.27;;;8.15;;
583;SDS011;27024;54.068;12.116;2023-02-23T01:59:03;19.48;;;8.45;;
583;SDS011;27024;54.068;12.116;2023-02-23T02:01:32;23.05;;;8.15;;
583;SDS011;27024;54.068;12.116;2023-02-23T02:04:03;25.90;;;9.57;;
583;SDS011;27024;54.068;12.116;2023-02-23T02:06:33;23.30;;;8.57;;
583;SDS011;27024;54.068;12.116;2023-02-23T02:09:04;24.13;;;8.25;;
583;SDS011;27024;54.068;12.116;2023-02-23T02:11:35;27.58;;;9.32;;
583;SDS011;27024;54.068;12.116;2023-02-23T02:16:53;23.17;;;8.82;;
583;SDS011;27024;54.068;12.116;2023-02-23T02:25:18;23.80;;;8.88;;
583;SDS011;27024;54.068;12.116;2023-02-23T02:28:01;24.50;;;8.98;;
583;SDS011;27024;54.068;12.116;2023-02-23T02:44:42;28.30;;;9.68;;
583;SDS011;27024;54.068;12.116;2023-02-23T02:47:32;28.35;;;10.05;;
583;SDS011;27024;54.068;12.116;2023-02-23T02:52:51;25.45;;;9.65;;
583;SDS011;27024;54.068;12.116;2023-02-23T02:55:26;21.23;;;9.30;;
583;SDS011;27024;54.068;12.116;2023-02-23T02:57:59;31.20;;;10.05;;
583;SDS011;27024;54.068;12.116;2023-02-23T03:00:29;25.60;;;9.20;;
583;SDS011;27024;54.068;12.116;2023-02-23T03:03:42;22.83;;;9.60;;
583;SDS011;27024;54.068;12.116;2023-02-23T03:09:19;30.40;;;9.57;;
583;SDS011;27024;54.068;12.116;2023-02-23T03:15:16;25.75;;;10.18;;
583;SDS011;27024;54.068;12.116;2023-02-23T03:18:20;26.25;;;9.27;;
583;SDS011;27024;54.068;12.116;2023-02-23T03:21:24;25.45;;;9.23;;
583;SDS011;27024;54.068;12.116;2023-02-23T03:27:25;24.17;;;9.68;;
583;SDS011;27024;54.068;12.116;2023-02-23T03:30:25;24.52;;;9.80;;
583;SDS011;27024;54.068;12.116;2023-02-23T03:33:29;26.52;;;10.13;;
583;SDS011;27024;54.068;12.116;2023-02-23T03:36:23;28.70;;;10.57;;
583;SDS011;27024;54.068;12.116;2023-02-23T03:41:56;21.75;;;9.82;;
583;SDS011;27024;54.068;12.116;2023-02-23T03:44:44;25.90;;;10.38;;
583;SDS011;27024;54.068;12.116;2023-02-23T03:47:34;30.02;;;10.27;;
583;SDS011;27024;54.068;12.116;2023-02-23T03:50:28;22.95;;;9.73;;
583;SDS011;27024;54.068;12.116;2023-02-23T03:53:20;26.27;;;10.18;;
583;SDS011;27024;54.068;12.116;2023-02-23T03:56:12;25.50;;;10.10;;
583;SDS011;27024;54.068;12.116;2023-02-23T03:59:00;25.83;;;10.30;;
583;SDS011;27024;54.068;12.116;2023-02-23T04:01:47;26.63;;;9.13;;
583;SDS011;27024;54.068;12.116;2023-02-23T04:04:36;25.33;;;9.35;;
583;SDS011;27024;54.068;12.116;2023-02-23T04:07:24;27.05;;;9.85;;
583;SDS011;27024;54.068;12.116;2023-02-23T04:10:09;24.02;;;10.23;;
583;SDS011;27024;54.068;12.116;2023-02-23T04:15:43;24.73;;;9.85;;
583;SDS011;27024;54.068;12.116;2023-02-23T04:18:22;26.27;;;10.30;;
583;SDS011;27024;54.068;12.116;2023-02-23T04:20:51;26.17;;;10.02;;
583;SDS011;27024;54.068;12.116;2023-02-23T04:23:19;23.88;;;9.57;;
583;SDS011;27024;54.068;12.116;2023-02-23T04:25:48;22.50;;;10.05;;
583;SDS011;27024;54.068;12.116;2023-02-23T04:28:17;26.25;;;9.88;;
583;SDS011;27024;54.068;12.116;2023-02-23T04:30:44;24.02;;;9.88;;
583;SDS011;27024;54.068;12.116;2023-02-23T04:33:11;25.63;;;9.70;;
583;SDS011;27024;54.068;12.116;2023-02-23T04:35:38;24.50;;;9.60;;
583;SDS011;27024;54.068;12.116;2023-02-23T04:38:05;23.75;;;9.75;;
583;SDS011;27024;54.068;12.116;2023-02-23T04:40:32;26.13;;;9.60;;
583;SDS011;27024;54.068;12.116;2023-02-23T04:43:00;24.65;;;9.65;;
583;SDS011;27024;54.068;12.116;2023-02-23T04:45:26;25.02;;;9.27;;
583;SDS011;27024;54.068;12.116;2023-02-23T04:47:53;22.65;;;9.70;;
583;SDS011;27024;54.068;12.116;2023-02-23T04:50:20;24.25;;;8.98;;
583;SDS011;27024;54.068;12.116;2023-02-23T04:52:47;26.20;;;9.50;;
583;SDS011;27024;54.068;12.116;2023-02-23T04:55:15;24.88;;;9.48;;
583;SDS011;27024;54.068;12.116;2023-02-23T04:57:47;25.30;;;9.43;;
583;SDS011;27024;54.068;12.116;2023-02-23T05:00:14;25.90;;;9.02;;
583;SDS011;27024;54.068;12.116;2023-02-23T05:02:42;24.33;;;9.32;;
583;SDS011;27024;54.068;12.116;2023-02-23T05:05:09;25.90;;;9.27;;
583;SDS011;27024;54.068;12.116;2023-02-23T05:07:36;25.50;;;9.57;;
583;SDS011;27024;54.068;12.116;2023-02-23T05:10:04;26.77;;;9.38;;
583;SDS011;27024;54.068;12.116;2023-02-23T05:12:31;23.58;;;8.90;;
583;SDS011;27024;54.068;12.116;2023-02-23T05:14:58;24.65;;;10.45;;
583;SDS011;27024;54.068;12.116;2023-02-23T05:17:25;22.95;;;9.35;;
583;SDS011;27024;54.068;12.116;2023-02-23T05:19:52;24.98;;;9.63;;
583;SDS011;27024;54.068;12.116;2023-02-23T05:22:19;20.98;;;9.13;;
583;SDS011;27024;54.068;12.116;2023-02-23T05:24:45;23.33;;;8.80;;
583;SDS011;27024;54.068;12.116;2023-02-23T05:27:13;22.80;;;8.73;;
583;SDS011;27024;54.068;12.116;2023-02-23T05:29:40;23.40;;;9.73;;
583;SDS011;27024;54.068;12.116;2023-02-23T05:32:07;25.67;;;9.80;;
583;SDS011;27024;54.068;12.116;2023-02-23T05:34:34;24.50;;;10.02;;
583;SDS011;27024;54.068;12.116;2023-02-23T05:37:02;23.58;;;9.13;;
583;SDS011;27024;54.068;12.116;2023-02-23T05:39:28;25.50;;;9.85;;
583;SDS011;27024;54.068;12.116;2023-02-23T05:41:55;22.08;;;9.23;;
583;SDS011;27024;54.068;12.116;2023-02-23T05:44:22;27.92;;;9.35;;
583;SDS011;27024;54.068;12.116;2023-02-23T05:46:50;24.58;;;9.25;;
583;SDS011;27024;54.068;12.116;2023-02-23T05:49:17;24.73;;;9.77;;
583;SDS011;27024;54.068;12.116;2023-02-23T05:51:43;20.70;;;9.93;;
583;SDS011;27024;54.068;12.116;2023-02-23T05:54:10;22.67;;;9.05;;
583;SDS011;27024;54.068;12.116;2023-02-23T05:56:40;23.48;;;9.10;;
583;SDS011;27024;54.068;12.116;2023-02-23T05:59:07;25.88;;;9.18;;
583;SDS011;27024;54.068;12.116;2023-02-23T06:01:34;27.85;;;9.38;;
583;SDS011;27024;54.068;12.116;2023-02-23T06:04:01;29.13;;;9.88;;
583;SDS011;27024;54.068;12.116;2023-02-23T06:06:30;22.15;;;8.88;;
583;SDS011;27024;54.068;12.116;2023-02-23T06:08:57;25.02;;;8.88;;
583;SDS011;27024;54.068;12.116;2023-02-23T06:11:24;22.98;;;9.55;;
583;SDS011;27024;54.068;12.116;2023-02-23T06:13:50;25.20;;;8.90;;
583;SDS011;27024;54.068;12.116;2023-02-23T06:16:17;25.58;;;9.15;;
583;SDS011;27024;54.068;12.116;2023-02-23T06:18:44;22.15;;;9.38;;
583;SDS011;27024;54.068;12.116;2023-02-23T06:21:11;25.25;;;9.73;;
583;SDS011;27024;54.068;12.116;2023-02-23T06:23:38;28.65;;;9.82;;
583;SDS011;27024;54.068;12.116;2023-02-23T06:26:05;24.50;;;9.15;;
583;SDS011;27024;54.068;12.116;2023-02-23T06:28:31;23.65;;;8.90;;
583;SDS011;27024;54.068;12.116;2023-02-23T06:30:58;22.73;;;9.13;;
583;SDS011;27024;54.068;12.116;2023-02-23T06:33:25;25.48;;;9.65;;
583;SDS011;27024;54.068;12.116;2023-02-23T06:35:52;25.98;;;9.27;;
583;SDS011;27024;54.068;12.116;2023-02-23T06:38:20;23.38;;;9.65;;
583;SDS011;27024;54.068;12.116;2023-02-23T06:40:47;23.38;;;9.15;;
583;SDS011;27024;54.068;12.116;2023-02-23T06:43:15;24.60;;;9.05;;
583;SDS011;27024;54.068;12.116;2023-02-23T06:45:42;27.50;;;10.32;;
583;SDS011;27024;54.068;12.116;2023-02-23T06:48:09;28.77;;;10.40;;
583;SDS011;27024;54.068;12.116;2023-02-23T06:50:35;28.80;;;9.48;;
583;SDS011;27024;54.068;12.116;2023-02-23T06:53:02;23.00;;;8.88;;
583;SDS011;27024;54.068;12.116;2023-02-23T06:55:30;24.98;;;9.02;;
583;SDS011;27024;54.068;12.116;2023-02-23T06:57:57;23.42;;;9.90;;
583;SDS011;27024;54.068;12.116;2023-02-23T07:00:24;22.73;;;8.43;;
583;SDS011;27024;54.068;12.116;2023-02-23T07:02:51;21.58;;;9.18;;
583;SDS011;27024;54.068;12.116;2023-02-23T07:05:18;22.88;;;9.45;;
583;SDS011;27024;54.068;12.116;2023-02-23T07:07:46;26.85;;;8.50;;
583;SDS011;27024;54.068;12.116;2023-02-23T07:10:13;26.75;;;9.05;;
583;SDS011;27024;54.068;12.116;2023-02-23T07:12:39;24.38;;;8.90;;
583;SDS011;27024;54.068;12.116;2023-02-23T07:15:06;21.45;;;8.68;;
583;SDS011;27024;54.068;12.116;2023-02-23T07:17:33;25.40;;;9.07;;
583;SDS011;27024;54.068;12.116;2023-02-23T07:20:00;27.85;;;9.63;;
583;SDS011;27024;54.068;12.116;2023-02-23T07:22:27;23.42;;;8.85;;
583;SDS011;27024;54.068;12.116;2023-02-23T07:24:56;26.77;;;9.35;;
583;SDS011;27024;54.068;12.116;2023-02-23T07:27:23;21.95;;;9.45;;
583;SDS011;27024;54.068;12.116;2023-02-23T07:29:50;22.70;;;9.27;;
583;SDS011;27024;54.068;12.116;2023-02-23T07:32:16;25.35;;;9.30;;
583;SDS011;27024;54.068;12.116;2023-02-23T07:34:43;30.52;;;10.13;;
583;SDS011;27024;54.068;12.116;2023-02-23T07:37:13;27.00;;;10.05;;
583;SDS011;27024;54.068;12.116;2023-02-23T07:39:40;25.33;;;9.85;;
583;SDS011;27024;54.068;12.116;2023-02-23T07:42:06;28.55;;;9.82;;
583;SDS011;27024;54.068;12.116;2023-02-23T07:44:33;20.52;;;9.23;;
583;SDS011;27024;54.068;12.116;2023-02-23T07:47:00;22.75;;;9.32;;
583;SDS011;27024;54.068;12.116;2023-02-23T07:49:26;28.38;;;10.13;;
583;SDS011;27024;54.068;12.116;2023-02-23T07:51:53;26.92;;;10.18;;
583;SDS011;27024;54.068;12.116;2023-02-23T07:54:20;26.70;;;8.63;;
583;SDS011;27024;54.068;12.116;2023-02-23T07:56:47;25.88;;;9.52;;
583;SDS011;27024;54.068;12.116;2023-02-23T07:59:14;21.25;;;8.70;;
583;SDS011;27024;54.068;12.116;2023-02-23T08:01:41;25.90;;;9.63;;
583;SDS011;27024;54.068;12.116;2023-02-23T08:04:08;27.45;;;9.32;;
583;SDS011;27024;54.068;12.116;2023-02-23T08:06:35;27.35;;;9.73;;
583;SDS011;27024;54.068;12.116;2023-02-23T08:09:02;28.05;;;9.68;;
583;SDS011;27024;54.068;12.116;2023-02-23T08:11:29;27.38;;;9.70;;
583;SDS011;27024;54.068;12.116;2023-02-23T08:13:56;23.77;;;9.60;;
583;SDS011;27024;54.068;12.116;2023-02-23T08:16:28;26.90;;;9.82;;
583;SDS011;27024;54.068;12.116;2023-02-23T08:18:57;22.67;;;9.57;;
583;SDS011;27024;54.068;12.116;2023-02-23T08:21:25;21.65;;;8.63;;
583;SDS011;27024;54.068;12.116;2023-02-23T08:23:55;27.00;;;9.88;;
583;SDS011;27024;54.068;12.116;2023-02-23T08:26:22;23.98;;;9.40;;
583;SDS011;27024;54.068;12.116;2023-02-23T08:28:50;21.77;;;9.30;;
583;SDS011;27024;54.068;12.116;2023-02-23T08:31:18;24.05;;;9.50;;
583;SDS011;27024;54.068;12.116;2023-02-23T08:33:50;25.10;;;9.45;;
583;SDS011;27024;54.068;12.116;2023-02-23T08:36:17;26.55;;;10.75;;
583;SDS011;27024;54.068;12.116;2023-02-23T08:38:46;24.05;;;10.25;;
583;SDS011;27024;54.068;12.116;2023-02-23T08:41:13;24.25;;;10.60;;
583;SDS011;27024;54.068;12.116;2023-02-23T08:43:40;24.83;;;9.70;;
583;SDS011;27024;54.068;12.116;2023-02-23T08:46:09;22.35;;;9.57;;
583;SDS011;27024;54.068;12.116;2023-02-23T08:48:36;30.58;;;10.80;;
583;SDS011;27024;54.068;12.116;2023-02-23T08:51:06;29.10;;;11.15;;
583;SDS011;27024;54.068;12.116;2023-02-23T08:53:33;27.15;;;10.85;;
583;SDS011;27024;54.068;12.116;2023-02-23T08:56:02;30.80;;;10.75;;
583;SDS011;27024;54.068;12.116;2023-02-23T08:58:32;31.63;;;11.32;;
583;SDS011;27024;54.068;12.116;2023-02-23T09:01:00;33.22;;;11.15;;
583;SDS011;27024;54.068;12.116;2023-02-23T09:03:28;30.83;;;11.40;;
583;SDS011;27024;54.068;12.116;2023-02-23T09:06:04;36.95;;;11.98;;
583;SDS011;27024;54.068;12.116;2023-02-23T09:08:34;34.15;;;11.20;;
583;SDS011;27024;54.068;12.116;2023-02-23T09:11:01;35.88;;;12.15;;
583;SDS011;27024;54.068;12.116;2023-02-23T09:13:27;32.28;;;12.65;;
583;SDS011;27024;54.068;12.116;2023-02-23T09:15:54;37.28;;;12.27;;
583;SDS011;27024;54.068;12.116;2023-02-23T09:18:21;31.42;;;11.45;;
583;SDS011;27024;54.068;12.116;2023-02-23T09:20:49;36.80;;;12.18;;
583;SDS011;27024;54.068;12.116;2023-02-23T09:23:18;37.17;;;12.25;;
583;SDS011;27024;54.068;12.116;2023-02-23T09:25:45;39.65;;;12.57;;
583;SDS011;27024;54.068;12.116;2023-02-23T09:28:13;39.75;;;12.40;;
583;SDS011;27024;54.068;12.116;2023-02-23T09:30:41;37.92;;;12.50;;
583;SDS011;27024;54.068;12.116;2023-02-23T09:33:09;41.85;;;13.07;;
583;SDS011;27024;54.068;12.116;2023-02-23T09:35:37;40.72;;;12.75;;
583;SDS011;27024;54.068;12.116;2023-02-23T09:38:05;41.28;;;13.15;;
583;SDS011;27024;54.068;12.116;2023-02-23T09:40:43;43.60;;;12.95;;
583;SDS011;27024;54.068;12.116;2023-02-23T09:43:14;40.75;;;14.05;;
583;SDS011;27024;54.068;12.116;2023-02-23T09:48:21;46.13;;;14.55;;
583;SDS011;27024;54.068;12.116;2023-02-23T09:50:51;42.70;;;13.63;;
583;SDS011;27024;54.068;12.116;2023-02-23T09:53:28;38.90;;;13.00;;
583;SDS011;27024;54.068;12.116;2023-02-23T09:55:59;44.92;;;13.60;;
583;SDS011;27024;54.068;12.116;2023-02-23T09:58:39;42.42;;;13.25;;
583;SDS011;27024;54.068;12.116;2023-02-23T10:03:40;41.40;;;13.82;;
583;SDS011;27024;54.068;12.116;2023-02-23T10:06:19;37.72;;;13.65;;
583;SDS011;27024;54.068;12.116;2023-02-23T10:16:55;38.63;;;13.52;;
583;SDS011;27024;54.068;12.116;2023-02-23T10:22:10;33.88;;;12.68;;
583;SDS011;27024;54.068;12.116;2023-02-23T10:24:40;40.38;;;13.98;;
583;SDS011;27024;54.068;12.116;2023-02-23T10:27:14;37.85;;;13.57;;
583;SDS011;27024;54.068;12.116;2023-02-23T10:32:40;40.97;;;13.77;;
583;SDS011;27024;54.068;12.116;2023-02-23T10:35:12;39.47;;;13.32;;
583;SDS011;27024;54.068;12.116;2023-02-23T10:37:46;34.90;;;13.52;;
583;SDS011;27024;54.068;12.116;2023-02-23T10:40:18;37.03;;;13.18;;
583;SDS011;27024;54.068;12.116;2023-02-23T10:42:48;39.60;;;13.43;;
583;SDS011;27024;54.068;12.116;2023-02-23T10:45:17;38.35;;;11.95;;
583;SDS011;27024;54.068;12.116;2023-02-23T10:48:03;33.33;;;11.65;;
583;SDS011;27024;54.068;12.116;2023-02-23T10:55:46;37.00;;;13.18;;
583;SDS011;27024;54.068;12.116;2023-02-23T10:58:27;39.17;;;12.90;;
583;SDS011;27024;54.068;12.116;2023-02-23T11:01:01;37.30;;;12.27;;
583;SDS011;27024;54.068;12.116;2023-02-23T11:03:41;36.05;;;12.45;;
583;SDS011;27024;54.068;12.116;2023-02-23T11:06:26;47.60;;;13.02;;
583;SDS011;27024;54.068;12.116;2023-02-23T11:08:57;35.65;;;12.82;;
583;SDS011;27024;54.068;12.116;2023-02-23T11:11:25;34.25;;;13.32;;
583;SDS011;27024;54.068;12.116;2023-02-23T11:13:55;38.97;;;13.02;;
583;SDS011;27024;54.068;12.116;2023-02-23T11:16:23;35.08;;;13.25;;
583;SDS011;27024;54.068;12.116;2023-02-23T11:21:31;37.78;;;12.98;;
583;SDS011;27024;54.068;12.116;2023-02-23T11:26:45;43.40;;;14.07;;
583;SDS011;27024;54.068;12.116;2023-02-23T11:31:51;41.60;;;13.95;;
583;SDS011;27024;54.068;12.116;2023-02-23T11:34:29;37.85;;;12.43;;
583;SDS011;27024;54.068;12.116;2023-02-23T11:37:05;37.22;;;12.65;;
583;SDS011;27024;54.068;12.116;2023-02-23T11:39:53;35.35;;;12.63;;
583;SDS011;27024;54.068;12.116;2023-02-23T11:42:21;35.97;;;12.10;;
583;SDS011;27024;54.068;12.116;2023-02-23T11:47:30;36.03;;;12.45;;
583;SDS011;27024;54.068;12.116;2023-02-23T11:50:00;29.00;;;11.77;;
583;SDS011;27024;54.068;12.116;2023-02-23T11:52:29;35.65;;;12.60;;
583;SDS011;27024;54.068;12.116;2023-02-23T11:55:06;37.83;;;13.63;;
583;SDS011;27024;54.068;12.116;2023-02-23T11:57:38;38.33;;;13.82;;
583;SDS011;27024;54.068;12.116;2023-02-23T12:00:09;37.53;;;13.50;;
583;SDS011;27024;54.068;12.116;2023-02-23T12:02:51;35.58;;;14.85;;
583;SDS011;27024;54.068;12.116;2023-02-23T12:05:25;35.83;;;14.32;;
583;SDS011;27024;54.068;12.116;2023-02-23T12:13:25;36.60;;;14.98;;
583;SDS011;27024;54.068;12.116;2023-02-23T12:15:59;35.35;;;15.02;;
583;SDS011;27024;54.068;12.116;2023-02-23T12:27:11;45.63;;;16.40;;
583;SDS011;27024;54.068;12.116;2023-02-23T12:35:13;43.50;;;16.58;;
583;SDS011;27024;54.068;12.116;2023-02-23T12:38:11;49.85;;;16.60;;
583;SDS011;27024;54.068;12.116;2023-02-23T12:40:45;46.22;;;16.70;;
583;SDS011;27024;54.068;12.116;2023-02-23T12:43:21;45.70;;;17.85;;
583;SDS011;27024;54.068;12.116;2023-02-23T12:48:34;51.17;;;18.38;;
583;SDS011;27024;54.068;12.116;2023-02-23T12:51:10;46.65;;;17.42;;
583;SDS011;27024;54.068;12.116;2023-02-23T12:53:44;47.50;;;17.27;;
583;SDS011;27024;54.068;12.116;2023-02-23T13:01:59;52.83;;;17.27;;
583;SDS011;27024;54.068;12.116;2023-02-23T13:07:18;52.53;;;17.50;;
583;SDS011;27024;54.068;12.116;2023-02-23T13:17:57;48.53;;;16.33;;
583;SDS011;27024;54.068;12.116;2023-02-23T13:23:27;44.60;;;16.67;;
583;SDS011;27024;54.068;12.116;2023-02-23T13:28:38;37.45;;;14.05;;
583;SDS011;27024;54.068;12.116;2023-02-23T13:31:46;45.55;;;14.63;;
583;SDS011;27024;54.068;12.116;2023-02-23T13:34:11;37.55;;;13.38;;
583;SDS011;27024;54.068;12.116;2023-02-23T13:36:46;40.85;;;13.77;;
583;SDS011;27024;54.068;12.116;2023-02-23T13:48:14;41.22;;;14.32;;
583;SDS011;27024;54.068;12.116;2023-02-23T13:50:27;42.15;;;14.27;;
583;SDS011;27024;54.068;12.116;2023-02-23T13:53:20;46.70;;;15.68;;
583;SDS011;27024;54.068;12.116;2023-02-23T13:56:26;40.88;;;13.70;;
583;SDS011;27024;54.068;12.116;2023-02-23T14:03:59;55.85;;;17.33;;
583;SDS011;27024;54.068;12.116;2023-02-23T14:06:30;55.28;;;17.27;;
583;SDS011;27024;54.068;12.116;2023-02-23T14:09:05;58.90;;;17.90;;
583;SDS011;27024;54.068;12.116;2023-02-23T14:11:55;59.95;;;19.45;;
583;SDS011;27024;54.068;12.116;2023-02-23T14:14:42;66.13;;;20.73;;
583;SDS011;27024;54.068;12.116;2023-02-23T14:41:23;124.38;;;28.98;;
583;SDS011;27024;54.068;12.116;2023-02-23T14:43:59;123.00;;;29.30;;
583;SDS011;27024;54.068;12.116;2023-02-23T14:46:49;118.82;;;28.45;;
583;SDS011;27024;54.068;12.116;2023-02-23T14:49:25;128.93;;;30.25;;
583;SDS011;27024;54.068;12.116;2023-02-23T14:51:54;118.72;;;26.83;;
583;SDS011;27024;54.068;12.116;2023-02-23T14:54:23;116.43;;;28.58;;
583;SDS011;27024;54.068;12.116;2023-02-23T14:56:58;116.57;;;27.70;;
583;SDS011;27024;54.068;12.116;2023-02-23T14:59:28;107.20;;;26.80;;
583;SDS011;27024;54.068;12.116;2023-02-23T15:02:06;110.03;;;26.40;;
583;SDS011;27024;54.068;12.116;2023-02-23T15:04:37;101.28;;;26.23;;
583;SDS011;27024;54.068;12.116;2023-02-23T15:07:05;91.22;;;24.70;;
583;SDS011;27024;54.068;12.116;2023-02-23T15:09:39;91.97;;;25.05;;
583;SDS011;27024;54.068;12.116;2023-02-23T15:12:29;84.40;;;24.65;;
583;SDS011;27024;54.068;12.116;2023-02-23T15:15:06;83.57;;;22.25;;
583;SDS011;27024;54.068;12.116;2023-02-23T15:17:43;85.50;;;25.25;;
583;SDS011;27024;54.068;12.116;2023-02-23T15:20:16;84.63;;;23.15;;
583;SDS011;27024;54.068;12.116;2023-02-23T15:22:50;85.85;;;23.27;;
583;SDS011;27024;54.068;12.116;2023-02-23T15:25:21;85.97;;;23.83;;
583;SDS011;27024;54.068;12.116;2023-02-23T15:27:51;86.75;;;23.17;;
583;SDS011;27024;54.068;12.116;2023-02-23T15:32:46;80.18;;;22.10;;
583;SDS011;27024;54.068;12.116;2023-02-23T15:35:14;81.10;;;22.67;;
583;SDS011;27024;54.068;12.116;2023-02-23T15:37:41;76.60;;;22.25;;
583;SDS011;27024;54.068;12.116;2023-02-23T15:40:21;81.50;;;22.73;;
583;SDS011;27024;54.068;12.116;2023-02-23T15:42:51;79.63;;;21.05;;
583;SDS011;27024;54.068;12.116;2023-02-23T15:47:53;84.28;;;23.58;;
583;SDS011;27024;54.068;12.116;2023-02-23T15:50:24;83.93;;;23.25;;
583;SDS011;27024;54.068;12.116;2023-02-23T15:53:06;81.53;;;22.05;;
583;SDS011;27024;54.068;12.116;2023-02-23T15:55:41;87.18;;;23.60;;
583;SDS011;27024;54.068;12.116;2023-02-23T15:58:15;85.82;;;22.15;;
583;SDS011;27024;54.068;12.116;2023-02-23T16:00:49;78.40;;;22.02;;
583;SDS011;27024;54.068;12.116;2023-02-23T16:03:40;77.10;;;21.63;;
583;SDS011;27024;54.068;12.116;2023-02-23T16:06:23;83.28;;;21.20;;
583;SDS011;27024;54.068;12.116;2023-02-23T16:09:19;79.25;;;21.38;;
583;SDS011;27024;54.068;12.116;2023-02-23T16:14:24;67.47;;;18.98;;
583;SDS011;27024;54.068;12.116;2023-02-23T16:16:57;76.13;;;20.15;;
583;SDS011;27024;54.068;12.116;2023-02-23T16:19:38;65.53;;;18.20;;
583;SDS011;27024;54.068;12.116;2023-02-23T16:22:09;64.75;;;17.45;;
583;SDS011;27024;54.068;12.116;2023-02-23T16:25:02;56.90;;;17.30;;
583;SDS011;27024;54.068;12.116;2023-02-23T16:27:33;61.55;;;18.25;;
583;SDS011;27024;54.068;12.116;2023-02-23T16:33:01;63.55;;;17.60;;
583;SDS011;27024;54.068;12.116;2023-02-23T16:35:37;59.40;;;17.45;;
583;SDS011;27024;54.068;12.116;2023-02-23T16:38:25;58.65;;;17.40;;
583;SDS011;27024;54.068;12.116;2023-02-23T16:41:04;57.38;;;16.38;;
583;SDS011;27024;54.068;12.116;2023-02-23T16:43:37;54.15;;;16.35;;
583;SDS011;27024;54.068;12.116;2023-02-23T16:46:04;51.03;;;15.77;;
583;SDS011;27024;54.068;12.116;2023-02-23T16:48:31;55.95;;;16.20;;
583;SDS011;27024;54.068;12.116;2023-02-23T16:50:58;52.80;;;16.33;;
583;SDS011;27024;54.068;12.116;2023-02-23T16:53:24;46.63;;;16.55;;
583;SDS011;27024;54.068;12.116;2023-02-23T16:55:52;53.65;;;15.57;;
583;SDS011;27024;54.068;12.116;2023-02-23T16:58:21;49.85;;;15.35;;
583;SDS011;27024;54.068;12.116;2023-02-23T17:00:50;47.53;;;14.88;;
583;SDS011;27024;54.068;12.116;2023-02-23T17:03:20;50.78;;;15.00;;
583;SDS011;27024;54.068;12.116;2023-02-23T17:05:52;55.88;;;16.02;;
583;SDS011;27024;54.068;12.116;2023-02-23T17:08:19;52.60;;;15.75;;
583;SDS011;27024;54.068;12.116;2023-02-23T17:10:47;49.72;;;15.65;;
583;SDS011;27024;54.068;12.116;2023-02-23T17:13:20;51.28;;;15.48;;
583;SDS011;27024;54.068;12.116;2023-02-23T17:15:49;48.90;;;14.63;;
583;SDS011;27024;54.068;12.116;2023-02-23T17:18:23;47.70;;;14.20;;
583;SDS011;27024;54.068;12.116;2023-02-23T17:20:55;50.05;;;15.88;;
583;SDS011;27024;54.068;12.116;2023-02-23T17:23:23;53.00;;;15.77;;
583;SDS011;27024;54.068;12.116;2023-02-23T17:26:04;46.03;;;13.35;;
583;SDS011;27024;54.068;12.116;2023-02-23T17:28:32;44.35;;;13.23;;
583;SDS011;27024;54.068;12.116;2023-02-23T17:31:00;44.90;;;13.32;;
583;SDS011;27024;54.068;12.116;2023-02-23T17:33:28;39.28;;;11.95;;
583;SDS011;27024;54.068;12.116;2023-02-23T17:36:06;41.03;;;12.30;;
583;SDS011;27024;54.068;12.116;2023-02-23T17:38:35;42.50;;;11.50;;
583;SDS011;27024;54.068;12.116;2023-02-23T17:41:07;37.65;;;10.68;;
583;SDS011;27024;54.068;12.116;2023-02-23T17:43:35;32.83;;;10.30;;
583;SDS011;27024;54.068;12.116;2023-02-23T17:46:05;35.10;;;10.52;;
583;SDS011;27024;54.068;12.116;2023-02-23T17:48:32;34.70;;;10.10;;
583;SDS011;27024;54.068;12.116;2023-02-23T17:51:02;30.75;;;9.25;;
583;SDS011;27024;54.068;12.116;2023-02-23T17:53:31;36.63;;;9.73;;
583;SDS011;27024;54.068;12.116;2023-02-23T17:55:59;31.48;;;9.98;;
583;SDS011;27024;54.068;12.116;2023-02-23T17:58:26;33.47;;;9.35;;
583;SDS011;27024;54.068;12.116;2023-02-23T18:00:57;36.17;;;10.00;;
583;SDS011;27024;54.068;12.116;2023-02-23T18:03:26;30.63;;;9.32;;